sensor_id;sensor_type;location;lat;lon;timestamp;temperature;humidity
20885;DHT22;10602;48.000;9.654;2023-07-13T00:00:31;17.00;99.90
20885;DHT22;10602;48.000;9.654;2023-07-13T00:02:58;17.00;99.90
20885;DHT22;10602;48.000;9.654;2023-07-13T00:05:26;17.00;99.90
20885;DHT22;10602;48.000;9.654;2023-07-13T00:07:53;17.00;99.90
20885;DHT22;10602;48.000;9.654;2023-07-13T00:12:49;17.00;99.90
20885;DHT22;10602;48.000;9.654;2023-07-13T00:15:22;16.90;99.90
20885;DHT22;10602;48.000;9.654;2023-07-13T00:17:54;17.00;99.90
20885;DHT22;10602;48.000;9.654;2023-07-13T00:20:23;17.00;99.90
20885;DHT22;10602;48.000;9.654;2023-07-13T00:22:52;17.00;99.90
20885;DHT22;10602;48.000;9.654;2023-07-13T00:25:21;17.00;99.90
20885;DHT22;10602;48.000;9.654;2023-07-13T00:27:50;17.00;99.90
20885;DHT22;10602;48.000;9.654;2023-07-13T00:30:18;17.00;99.90
20885;DHT22;10602;48.000;9.654;2023-07-13T00:32:46;17.00;99.90
20885;DHT22;10602;48.000;9.654;2023-07-13T00:35:15;17.00;99.90
20885;DHT22;10602;48.000;9.654;2023-07-13T00:37:42;17.00;99.90
20885;DHT22;10602;48.000;9.654;2023-07-13T00:40:12;17.00;99.90
20885;DHT22;10602;48.000;9.654;2023-07-13T00:42:40;16.90;99.90
20885;DHT22;10602;48.000;9.654;2023-07-13T00:50:14;16.90;99.90
20885;DHT22;10602;48.000;9.654;2023-07-13T00:52:45;16.90;99.90
20885;DHT22;10602;48.000;9.654;2023-07-13T00:55:13;16.80;99.90
20885;DHT22;10602;48.000;9.654;2023-07-13T00:57:42;16.90;99.90
20885;DHT22;10602;48.000;9.654;2023-07-13T01:00:11;16.80;99.90
20885;DHT22;10602;48.000;9.654;2023-07-13T01:02:41;16.80;99.90
20885;DHT22;10602;48.000;9.654;2023-07-13T01:05:14;16.80;99.90
20885;DHT22;10602;48.000;9.654;2023-07-13T01:07:43;16.80;99.90
20885;DHT22;10602;48.000;9.654;2023-07-13T01:10:12;16.70;99.90
20885;DHT22;10602;48.000;9.654;2023-07-13T01:12:40;16.70;99.90
20885;DHT22;10602;48.000;9.654;2023-07-13T01:15:45;16.70;99.90
20885;DHT22;10602;48.000;9.654;2023-07-13T01:17:57;16.70;99.90
20885;DHT22;10602;48.000;9.654;2023-07-13T01:20:25;16.80;99.90
20885;DHT22;10602;48.000;9.654;2023-07-13T01:22:53;16.80;99.90
20885;DHT22;10602;48.000;9.654;2023-07-13T01:25:20;16.80;99.90
20885;DHT22;10602;48.000;9.654;2023-07-13T01:27:48;16.80;99.90
20885;DHT22;10602;48.000;9.654;2023-07-13T01:30:15;16.80;99.90
20885;DHT22;10602;48.000;9.654;2023-07-13T01:32:43;16.80;99.90
20885;DHT22;10602;48.000;9.654;2023-07-13T01:35:10;16.80;99.90
20885;DHT22;10602;48.000;9.654;2023-07-13T01:37:39;16.80;99.90
20885;DHT22;10602;48.000;9.654;2023-07-13T01:40:07;16.80;99.90
20885;DHT22;10602;48.000;9.654;2023-07-13T01:42:35;16.80;99.90
20885;DHT22;10602;48.000;9.654;2023-07-13T01:45:02;16.70;99.90
20885;DHT22;10602;48.000;9.654;2023-07-13T01:47:30;16.70;99.90
20885;DHT22;10602;48.000;9.654;2023-07-13T01:52:25;16.60;99.90
20885;DHT22;10602;48.000;9.654;2023-07-13T01:54:52;16.60;99.90
20885;DHT22;10602;48.000;9.654;2023-07-13T01:57:20;16.60;99.90
20885;DHT22;10602;48.000;9.654;2023-07-13T01:59:47;16.50;99.90
20885;DHT22;10602;48.000;9.654;2023-07-13T02:02:15;16.50;99.90
20885;DHT22;10602;48.000;9.654;2023-07-13T02:04:42;16.50;99.90
20885;DHT22;10602;48.000;9.654;2023-07-13T02:07:10;16.40;99.90
20885;DHT22;10602;48.000;9.654;2023-07-13T02:09:38;16.40;99.90
20885;DHT22;10602;48.000;9.654;2023-07-13T02:12:06;16.40;99.90
20885;DHT22;10602;48.000;9.654;2023-07-13T02:14:33;16.40;99.90
20885;DHT22;10602;48.000;9.654;2023-07-13T02:17:01;16.50;99.90
20885;DHT22;10602;48.000;9.654;2023-07-13T02:19:29;16.40;99.90
20885;DHT22;10602;48.000;9.654;2023-07-13T02:21:56;16.40;99.90
20885;DHT22;10602;48.000;9.654;2023-07-13T02:24:24;16.40;99.90
20885;DHT22;10602;48.000;9.654;2023-07-13T02:26:51;16.40;99.90
20885;DHT22;10602;48.000;9.654;2023-07-13T02:29:19;16.40;99.90
20885;DHT22;10602;48.000;9.654;2023-07-13T02:31:46;16.40;99.90
20885;DHT22;10602;48.000;9.654;2023-07-13T02:34:14;16.40;99.90
20885;DHT22;10602;48.000;9.654;2023-07-13T02:36:42;16.40;99.90
20885;DHT22;10602;48.000;9.654;2023-07-13T02:39:11;16.40;99.90
20885;DHT22;10602;48.000;9.654;2023-07-13T02:41:39;16.30;99.90
20885;DHT22;10602;48.000;9.654;2023-07-13T02:44:06;16.30;99.90
20885;DHT22;10602;48.000;9.654;2023-07-13T02:46:36;16.30;99.90
20885;DHT22;10602;48.000;9.654;2023-07-13T02:49:04;16.30;99.90
20885;DHT22;10602;48.000;9.654;2023-07-13T02:51:32;16.30;99.90
20885;DHT22;10602;48.000;9.654;2023-07-13T02:54:01;16.30;99.90
20885;DHT22;10602;48.000;9.654;2023-07-13T02:56:30;16.30;99.90
20885;DHT22;10602;48.000;9.654;2023-07-13T02:58:58;16.30;99.90
20885;DHT22;10602;48.000;9.654;2023-07-13T03:01:26;16.20;99.90
20885;DHT22;10602;48.000;9.654;2023-07-13T03:03:53;16.20;99.90
20885;DHT22;10602;48.000;9.654;2023-07-13T03:06:22;16.20;99.90
20885;DHT22;10602;48.000;9.654;2023-07-13T03:08:49;16.30;99.90
20885;DHT22;10602;48.000;9.654;2023-07-13T03:11:19;16.30;99.90
20885;DHT22;10602;48.000;9.654;2023-07-13T03:13:47;16.30;99.90
20885;DHT22;10602;48.000;9.654;2023-07-13T03:16:15;16.30;99.90
20885;DHT22;10602;48.000;9.654;2023-07-13T03:18:43;16.40;99.90
20885;DHT22;10602;48.000;9.654;2023-07-13T03:21:11;16.40;99.90
20885;DHT22;10602;48.000;9.654;2023-07-13T03:23:39;16.40;99.90
20885;DHT22;10602;48.000;9.654;2023-07-13T03:26:12;16.40;99.90
20885;DHT22;10602;48.000;9.654;2023-07-13T03:28:40;16.40;99.90
20885;DHT22;10602;48.000;9.654;2023-07-13T03:31:14;16.50;99.90
20885;DHT22;10602;48.000;9.654;2023-07-13T03:33:42;16.40;99.90
20885;DHT22;10602;48.000;9.654;2023-07-13T03:36:17;16.40;99.90
20885;DHT22;10602;48.000;9.654;2023-07-13T03:38:40;16.40;99.90
20885;DHT22;10602;48.000;9.654;2023-07-13T03:41:08;16.40;99.90
20885;DHT22;10602;48.000;9.654;2023-07-13T03:43:35;16.30;99.90
20885;DHT22;10602;48.000;9.654;2023-07-13T03:46:03;16.30;99.90
20885;DHT22;10602;48.000;9.654;2023-07-13T03:48:30;16.30;99.90
20885;DHT22;10602;48.000;9.654;2023-07-13T03:50:58;16.30;99.90
20885;DHT22;10602;48.000;9.654;2023-07-13T03:53:25;16.30;99.90
20885;DHT22;10602;48.000;9.654;2023-07-13T03:55:53;16.30;99.90
20885;DHT22;10602;48.000;9.654;2023-07-13T03:58:26;16.40;99.90
20885;DHT22;10602;48.000;9.654;2023-07-13T04:00:54;16.40;99.90
20885;DHT22;10602;48.000;9.654;2023-07-13T04:03:22;16.40;99.90
20885;DHT22;10602;48.000;9.654;2023-07-13T04:05:50;16.50;99.90
20885;DHT22;10602;48.000;9.654;2023-07-13T04:08:17;16.50;99.90
20885;DHT22;10602;48.000;9.654;2023-07-13T04:10:45;16.60;99.90
20885;DHT22;10602;48.000;9.654;2023-07-13T04:13:12;16.60;99.90
20885;DHT22;10602;48.000;9.654;2023-07-13T04:15:41;16.60;99.90
20885;DHT22;10602;48.000;9.654;2023-07-13T04:18:08;16.70;99.90
20885;DHT22;10602;48.000;9.654;2023-07-13T04:20:36;16.70;99.90
20885;DHT22;10602;48.000;9.654;2023-07-13T04:23:04;16.80;99.90
20885;DHT22;10602;48.000;9.654;2023-07-13T04:25:31;16.80;99.90
20885;DHT22;10602;48.000;9.654;2023-07-13T04:27:58;16.90;99.90
20885;DHT22;10602;48.000;9.654;2023-07-13T04:30:26;16.80;99.90
20885;DHT22;10602;48.000;9.654;2023-07-13T04:32:54;16.80;99.90
20885;DHT22;10602;48.000;9.654;2023-07-13T04:35:21;16.80;99.90
20885;DHT22;10602;48.000;9.654;2023-07-13T04:37:50;16.80;99.90
20885;DHT22;10602;48.000;9.654;2023-07-13T04:40:17;16.80;99.90
20885;DHT22;10602;48.000;9.654;2023-07-13T04:42:46;16.70;99.90
20885;DHT22;10602;48.000;9.654;2023-07-13T04:45:14;16.70;99.90
20885;DHT22;10602;48.000;9.654;2023-07-13T04:47:42;16.80;99.90
20885;DHT22;10602;48.000;9.654;2023-07-13T04:50:10;16.80;99.90
20885;DHT22;10602;48.000;9.654;2023-07-13T04:55:05;16.80;99.90
20885;DHT22;10602;48.000;9.654;2023-07-13T04:57:32;16.90;99.90
20885;DHT22;10602;48.000;9.654;2023-07-13T05:00:00;16.90;99.90
20885;DHT22;10602;48.000;9.654;2023-07-13T05:02:29;17.00;99.90
20885;DHT22;10602;48.000;9.654;2023-07-13T05:04:58;17.00;99.90
20885;DHT22;10602;48.000;9.654;2023-07-13T05:07:26;17.30;99.90
20885;DHT22;10602;48.000;9.654;2023-07-13T05:09:53;17.00;99.90
20885;DHT22;10602;48.000;9.654;2023-07-13T05:12:21;17.10;99.90
20885;DHT22;10602;48.000;9.654;2023-07-13T05:14:48;17.10;99.90
20885;DHT22;10602;48.000;9.654;2023-07-13T05:17:16;17.10;99.90
20885;DHT22;10602;48.000;9.654;2023-07-13T05:19:43;17.20;99.90
20885;DHT22;10602;48.000;9.654;2023-07-13T05:22:11;17.30;99.90
20885;DHT22;10602;48.000;9.654;2023-07-13T05:24:38;17.40;99.90
20885;DHT22;10602;48.000;9.654;2023-07-13T05:27:06;17.50;99.90
20885;DHT22;10602;48.000;9.654;2023-07-13T05:29:33;17.70;99.90
20885;DHT22;10602;48.000;9.654;2023-07-13T05:32:01;17.80;99.90
20885;DHT22;10602;48.000;9.654;2023-07-13T05:34:28;17.90;99.90
20885;DHT22;10602;48.000;9.654;2023-07-13T05:36:56;18.00;99.90
20885;DHT22;10602;48.000;9.654;2023-07-13T05:39:24;18.10;99.90
20885;DHT22;10602;48.000;9.654;2023-07-13T05:41:52;18.10;99.90
20885;DHT22;10602;48.000;9.654;2023-07-13T05:44:20;18.10;99.90
20885;DHT22;10602;48.000;9.654;2023-07-13T05:46:47;18.10;99.90
20885;DHT22;10602;48.000;9.654;2023-07-13T05:49:15;18.10;99.90
20885;DHT22;10602;48.000;9.654;2023-07-13T05:51:42;18.30;99.90
20885;DHT22;10602;48.000;9.654;2023-07-13T05:54:10;18.30;99.90
20885;DHT22;10602;48.000;9.654;2023-07-13T05:56:37;18.40;99.90
20885;DHT22;10602;48.000;9.654;2023-07-13T05:59:05;18.40;99.90
20885;DHT22;10602;48.000;9.654;2023-07-13T06:01:32;18.40;99.90
20885;DHT22;10602;48.000;9.654;2023-07-13T06:04:00;18.40;99.90
20885;DHT22;10602;48.000;9.654;2023-07-13T06:06:28;18.40;99.90
20885;DHT22;10602;48.000;9.654;2023-07-13T06:08:55;18.40;99.90
20885;DHT22;10602;48.000;9.654;2023-07-13T06:11:24;18.50;99.90
20885;DHT22;10602;48.000;9.654;2023-07-13T06:13:52;18.50;99.90
20885;DHT22;10602;48.000;9.654;2023-07-13T06:16:20;18.60;99.90
20885;DHT22;10602;48.000;9.654;2023-07-13T06:18:48;18.70;99.90
20885;DHT22;10602;48.000;9.654;2023-07-13T06:21:18;18.70;99.90
20885;DHT22;10602;48.000;9.654;2023-07-13T06:23:46;18.80;99.90
20885;DHT22;10602;48.000;9.654;2023-07-13T06:26:15;18.90;99.60
20885;DHT22;10602;48.000;9.654;2023-07-13T06:28:43;19.00;66.40
20885;DHT22;10602;48.000;9.654;2023-07-13T06:31:12;19.20;57.30
20885;DHT22;10602;48.000;9.654;2023-07-13T06:33:40;19.30;43.60
20885;DHT22;10602;48.000;9.654;2023-07-13T06:36:08;19.50;25.70
20885;DHT22;10602;48.000;9.654;2023-07-13T06:38:36;19.60;1.00
20885;DHT22;10602;48.000;9.654;2023-07-13T06:41:05;19.60;1.00
20885;DHT22;10602;48.000;9.654;2023-07-13T06:43:32;19.60;1.00
20885;DHT22;10602;48.000;9.654;2023-07-13T06:46:00;19.50;1.00
20885;DHT22;10602;48.000;9.654;2023-07-13T06:48:33;19.50;1.00
20885;DHT22;10602;48.000;9.654;2023-07-13T06:51:01;19.60;1.00
20885;DHT22;10602;48.000;9.654;2023-07-13T06:53:29;19.60;1.00
20885;DHT22;10602;48.000;9.654;2023-07-13T06:55:56;19.30;99.90
20885;DHT22;10602;48.000;9.654;2023-07-13T06:58:24;19.10;1.00
20885;DHT22;10602;48.000;9.654;2023-07-13T07:00:52;18.90;1.00
20885;DHT22;10602;48.000;9.654;2023-07-13T07:03:20;18.80;1.00
20885;DHT22;10602;48.000;9.654;2023-07-13T07:05:49;19.00;1.00
20885;DHT22;10602;48.000;9.654;2023-07-13T07:08:16;19.20;1.00
20885;DHT22;10602;48.000;9.654;2023-07-13T07:10:44;19.40;1.00
20885;DHT22;10602;48.000;9.654;2023-07-13T07:13:11;19.50;1.00
20885;DHT22;10602;48.000;9.654;2023-07-13T07:15:39;19.70;1.00
20885;DHT22;10602;48.000;9.654;2023-07-13T07:18:07;19.80;1.00
20885;DHT22;10602;48.000;9.654;2023-07-13T07:20:34;19.90;1.00
20885;DHT22;10602;48.000;9.654;2023-07-13T07:23:02;19.90;1.00
20885;DHT22;10602;48.000;9.654;2023-07-13T07:25:29;19.80;1.00
20885;DHT22;10602;48.000;9.654;2023-07-13T07:27:58;19.70;1.00
20885;DHT22;10602;48.000;9.654;2023-07-13T07:30:26;19.80;1.00
20885;DHT22;10602;48.000;9.654;2023-07-13T07:32:54;19.90;1.00
20885;DHT22;10602;48.000;9.654;2023-07-13T07:35:21;20.00;1.00
20885;DHT22;10602;48.000;9.654;2023-07-13T07:37:49;20.10;99.90
20885;DHT22;10602;48.000;9.654;2023-07-13T07:40:16;20.20;1.00
20885;DHT22;10602;48.000;9.654;2023-07-13T07:42:44;20.40;1.00
20885;DHT22;10602;48.000;9.654;2023-07-13T07:45:11;20.60;1.00
20885;DHT22;10602;48.000;9.654;2023-07-13T07:47:40;20.70;1.00
20885;DHT22;10602;48.000;9.654;2023-07-13T07:50:07;21.10;1.00
20885;DHT22;10602;48.000;9.654;2023-07-13T07:52:35;21.20;1.00
20885;DHT22;10602;48.000;9.654;2023-07-13T07:55:05;21.30;99.90
20885;DHT22;10602;48.000;9.654;2023-07-13T07:57:33;21.50;1.00
20885;DHT22;10602;48.000;9.654;2023-07-13T08:00:00;21.70;99.90
20885;DHT22;10602;48.000;9.654;2023-07-13T08:02:28;21.80;99.90
20885;DHT22;10602;48.000;9.654;2023-07-13T08:04:55;21.50;1.00
20885;DHT22;10602;48.000;9.654;2023-07-13T08:07:23;21.50;1.00
20885;DHT22;10602;48.000;9.654;2023-07-13T08:09:55;21.50;1.00
20885;DHT22;10602;48.000;9.654;2023-07-13T08:12:22;21.60;1.00
20885;DHT22;10602;48.000;9.654;2023-07-13T08:14:50;21.60;99.90
20885;DHT22;10602;48.000;9.654;2023-07-13T08:17:20;21.80;99.90
20885;DHT22;10602;48.000;9.654;2023-07-13T08:19:48;21.90;99.90
20885;DHT22;10602;48.000;9.654;2023-07-13T08:22:15;21.90;99.90
20885;DHT22;10602;48.000;9.654;2023-07-13T08:24:43;21.50;99.90
20885;DHT22;10602;48.000;9.654;2023-07-13T08:27:13;21.30;1.00
20885;DHT22;10602;48.000;9.654;2023-07-13T08:29:41;21.50;1.00
20885;DHT22;10602;48.000;9.654;2023-07-13T08:32:08;21.30;99.90
20885;DHT22;10602;48.000;9.654;2023-07-13T08:34:37;21.20;1.00
20885;DHT22;10602;48.000;9.654;2023-07-13T08:37:05;21.40;1.00
20885;DHT22;10602;48.000;9.654;2023-07-13T08:39:33;21.60;1.00
20885;DHT22;10602;48.000;9.654;2023-07-13T08:42:04;22.20;1.00
20885;DHT22;10602;48.000;9.654;2023-07-13T08:47:11;22.50;96.20
20885;DHT22;10602;48.000;9.654;2023-07-13T08:49:41;22.60;1.00
20885;DHT22;10602;48.000;9.654;2023-07-13T08:52:16;22.90;1.00
20885;DHT22;10602;48.000;9.654;2023-07-13T08:54:44;23.00;1.00
20885;DHT22;10602;48.000;9.654;2023-07-13T08:57:15;23.40;1.00
20885;DHT22;10602;48.000;9.654;2023-07-13T08:59:44;23.30;1.00
20885;DHT22;10602;48.000;9.654;2023-07-13T09:05:04;22.90;1.00
20885;DHT22;10602;48.000;9.654;2023-07-13T09:10:15;23.20;1.00
20885;DHT22;10602;48.000;9.654;2023-07-13T09:12:50;22.90;1.00
20885;DHT22;10602;48.000;9.654;2023-07-13T09:15:30;22.40;1.00
20885;DHT22;10602;48.000;9.654;2023-07-13T09:18:04;22.30;1.00
20885;DHT22;10602;48.000;9.654;2023-07-13T09:20:31;22.20;1.00
20885;DHT22;10602;48.000;9.654;2023-07-13T09:23:01;22.40;1.00
20885;DHT22;10602;48.000;9.654;2023-07-13T09:25:35;22.60;1.00
20885;DHT22;10602;48.000;9.654;2023-07-13T09:28:20;22.80;1.00
20885;DHT22;10602;48.000;9.654;2023-07-13T09:33:22;22.70;1.00
20885;DHT22;10602;48.000;9.654;2023-07-13T09:35:50;22.60;1.00
20885;DHT22;10602;48.000;9.654;2023-07-13T09:38:19;22.20;1.00
20885;DHT22;10602;48.000;9.654;2023-07-13T09:46:27;22.00;93.30
20885;DHT22;10602;48.000;9.654;2023-07-13T09:48:56;22.40;1.00
20885;DHT22;10602;48.000;9.654;2023-07-13T09:51:23;22.70;1.00
20885;DHT22;10602;48.000;9.654;2023-07-13T09:53:51;22.70;1.00
20885;DHT22;10602;48.000;9.654;2023-07-13T09:56:27;22.90;1.00
20885;DHT22;10602;48.000;9.654;2023-07-13T09:58:53;22.90;1.00
20885;DHT22;10602;48.000;9.654;2023-07-13T10:01:38;22.90;1.00
20885;DHT22;10602;48.000;9.654;2023-07-13T10:04:13;22.70;1.00
20885;DHT22;10602;48.000;9.654;2023-07-13T10:06:41;22.50;1.00
20885;DHT22;10602;48.000;9.654;2023-07-13T10:09:09;22.30;1.00
20885;DHT22;10602;48.000;9.654;2023-07-13T10:11:39;22.10;1.00
20885;DHT22;10602;48.000;9.654;2023-07-13T10:14:16;22.10;1.00
20885;DHT22;10602;48.000;9.654;2023-07-13T10:16:45;22.00;1.00
20885;DHT22;10602;48.000;9.654;2023-07-13T10:19:18;22.40;21.90
20885;DHT22;10602;48.000;9.654;2023-07-13T10:21:53;22.80;1.00
20885;DHT22;10602;48.000;9.654;2023-07-13T10:24:24;23.10;1.00
20885;DHT22;10602;48.000;9.654;2023-07-13T10:29:25;22.30;1.00
20885;DHT22;10602;48.000;9.654;2023-07-13T10:31:54;21.70;1.00
20885;DHT22;10602;48.000;9.654;2023-07-13T10:34:23;21.50;99.90
20885;DHT22;10602;48.000;9.654;2023-07-13T10:36:52;21.60;99.90
20885;DHT22;10602;48.000;9.654;2023-07-13T10:39:22;21.80;99.90
20885;DHT22;10602;48.000;9.654;2023-07-13T10:42:03;21.90;29.70
20885;DHT22;10602;48.000;9.654;2023-07-13T10:44:32;22.20;1.00
20885;DHT22;10602;48.000;9.654;2023-07-13T10:47:06;22.10;77.50
20885;DHT22;10602;48.000;9.654;2023-07-13T10:49:34;22.20;1.00
20885;DHT22;10602;48.000;9.654;2023-07-13T10:52:03;22.30;1.00
20885;DHT22;10602;48.000;9.654;2023-07-13T10:54:32;22.50;1.00
20885;DHT22;10602;48.000;9.654;2023-07-13T10:57:18;22.90;1.00
20885;DHT22;10602;48.000;9.654;2023-07-13T10:59:49;22.80;1.00
20885;DHT22;10602;48.000;9.654;2023-07-13T11:02:25;22.70;1.00
20885;DHT22;10602;48.000;9.654;2023-07-13T11:04:54;22.70;1.00
20885;DHT22;10602;48.000;9.654;2023-07-13T11:07:30;22.80;1.00
20885;DHT22;10602;48.000;9.654;2023-07-13T11:10:02;23.50;1.00
20885;DHT22;10602;48.000;9.654;2023-07-13T11:12:48;24.10;1.00
20885;DHT22;10602;48.000;9.654;2023-07-13T11:15:29;24.80;1.00
20885;DHT22;10602;48.000;9.654;2023-07-13T11:17:56;24.80;1.00
20885;DHT22;10602;48.000;9.654;2023-07-13T11:20:39;25.30;1.00
20885;DHT22;10602;48.000;9.654;2023-07-13T11:23:17;25.90;1.00
20885;DHT22;10602;48.000;9.654;2023-07-13T11:25:38;26.20;1.00
20885;DHT22;10602;48.000;9.654;2023-07-13T11:28:21;26.60;1.00
20885;DHT22;10602;48.000;9.654;2023-07-13T11:33:28;25.70;99.90
20885;DHT22;10602;48.000;9.654;2023-07-13T11:36:12;25.50;99.90
20885;DHT22;10602;48.000;9.654;2023-07-13T11:38:38;26.10;99.90
20885;DHT22;10602;48.000;9.654;2023-07-13T11:43:36;26.90;99.90
20885;DHT22;10602;48.000;9.654;2023-07-13T11:46:25;26.60;99.90
20885;DHT22;10602;48.000;9.654;2023-07-13T11:48:53;26.90;99.90
20885;DHT22;10602;48.000;9.654;2023-07-13T11:51:30;27.00;99.90
20885;DHT22;10602;48.000;9.654;2023-07-13T11:54:04;26.40;99.90
20885;DHT22;10602;48.000;9.654;2023-07-13T11:56:31;24.90;99.90
20885;DHT22;10602;48.000;9.654;2023-07-13T11:59:03;24.80;99.90
20885;DHT22;10602;48.000;9.654;2023-07-13T12:01:31;25.00;99.90
20885;DHT22;10602;48.000;9.654;2023-07-13T12:04:01;25.10;99.90
20885;DHT22;10602;48.000;9.654;2023-07-13T12:06:31;25.10;99.90
20885;DHT22;10602;48.000;9.654;2023-07-13T12:09:01;25.50;99.90
20885;DHT22;10602;48.000;9.654;2023-07-13T12:11:30;26.10;99.90
20885;DHT22;10602;48.000;9.654;2023-07-13T12:13:58;26.50;99.90
20885;DHT22;10602;48.000;9.654;2023-07-13T12:16:30;26.30;99.90
20885;DHT22;10602;48.000;9.654;2023-07-13T12:19:01;26.20;99.90
20885;DHT22;10602;48.000;9.654;2023-07-13T12:21:38;26.10;99.90
20885;DHT22;10602;48.000;9.654;2023-07-13T12:24:03;25.40;99.90
20885;DHT22;10602;48.000;9.654;2023-07-13T12:26:32;25.20;99.90
20885;DHT22;10602;48.000;9.654;2023-07-13T12:29:01;25.00;99.90
20885;DHT22;10602;48.000;9.654;2023-07-13T12:31:37;25.50;1.00
20885;DHT22;10602;48.000;9.654;2023-07-13T12:34:16;26.10;1.00
20885;DHT22;10602;48.000;9.654;2023-07-13T12:36:49;26.60;99.90
20885;DHT22;10602;48.000;9.654;2023-07-13T12:41:54;26.40;99.90
20885;DHT22;10602;48.000;9.654;2023-07-13T12:44:29;26.50;99.90
20885;DHT22;10602;48.000;9.654;2023-07-13T12:47:05;27.30;99.90
20885;DHT22;10602;48.000;9.654;2023-07-13T12:49:34;27.90;99.90
20885;DHT22;10602;48.000;9.654;2023-07-13T12:52:11;28.10;99.90
20885;DHT22;10602;48.000;9.654;2023-07-13T12:54:34;28.10;99.90
20885;DHT22;10602;48.000;9.654;2023-07-13T12:57:04;27.70;99.90
20885;DHT22;10602;48.000;9.654;2023-07-13T12:59:33;27.00;99.90
20885;DHT22;10602;48.000;9.654;2023-07-13T13:02:07;26.10;99.90
20885;DHT22;10602;48.000;9.654;2023-07-13T13:04:32;25.40;99.90
20885;DHT22;10602;48.000;9.654;2023-07-13T13:07:03;25.40;99.90
20885;DHT22;10602;48.000;9.654;2023-07-13T13:09:33;25.40;99.90
20885;DHT22;10602;48.000;9.654;2023-07-13T13:12:00;25.10;99.90
20885;DHT22;10602;48.000;9.654;2023-07-13T13:14:28;25.30;99.90
20885;DHT22;10602;48.000;9.654;2023-07-13T13:16:55;25.20;99.90
20885;DHT22;10602;48.000;9.654;2023-07-13T13:19:26;25.10;99.90
20885;DHT22;10602;48.000;9.654;2023-07-13T13:21:55;24.60;99.90
20885;DHT22;10602;48.000;9.654;2023-07-13T13:24:26;24.40;99.90
20885;DHT22;10602;48.000;9.654;2023-07-13T13:26:54;24.90;99.90
20885;DHT22;10602;48.000;9.654;2023-07-13T13:29:25;25.40;99.90
20885;DHT22;10602;48.000;9.654;2023-07-13T13:31:53;25.90;99.90
20885;DHT22;10602;48.000;9.654;2023-07-13T13:34:22;25.70;99.90
20885;DHT22;10602;48.000;9.654;2023-07-13T13:36:53;25.30;99.90
20885;DHT22;10602;48.000;9.654;2023-07-13T13:39:23;25.80;99.90
20885;DHT22;10602;48.000;9.654;2023-07-13T13:41:52;26.30;99.90
20885;DHT22;10602;48.000;9.654;2023-07-13T13:44:21;26.50;99.90
20885;DHT22;10602;48.000;9.654;2023-07-13T13:46:53;25.90;99.90
20885;DHT22;10602;48.000;9.654;2023-07-13T13:49:26;25.40;99.90
20885;DHT22;10602;48.000;9.654;2023-07-13T13:51:54;25.20;99.90
20885;DHT22;10602;48.000;9.654;2023-07-13T13:54:23;24.90;1.00
20885;DHT22;10602;48.000;9.654;2023-07-13T13:56:52;24.40;1.00
20885;DHT22;10602;48.000;9.654;2023-07-13T13:59:20;24.40;1.00
20885;DHT22;10602;48.000;9.654;2023-07-13T14:01:48;24.50;1.00
20885;DHT22;10602;48.000;9.654;2023-07-13T14:04:19;24.60;1.00
20885;DHT22;10602;48.000;9.654;2023-07-13T14:06:47;24.60;1.00
20885;DHT22;10602;48.000;9.654;2023-07-13T14:09:17;24.70;1.00
20885;DHT22;10602;48.000;9.654;2023-07-13T14:11:47;24.60;1.00
20885;DHT22;10602;48.000;9.654;2023-07-13T14:14:18;24.80;1.00
20885;DHT22;10602;48.000;9.654;2023-07-13T14:16:46;25.00;1.00
20885;DHT22;10602;48.000;9.654;2023-07-13T14:19:15;25.00;1.00
20885;DHT22;10602;48.000;9.654;2023-07-13T14:21:43;25.10;1.00
20885;DHT22;10602;48.000;9.654;2023-07-13T14:24:11;25.20;1.00
20885;DHT22;10602;48.000;9.654;2023-07-13T14:26:40;24.90;1.00
20885;DHT22;10602;48.000;9.654;2023-07-13T14:29:16;24.50;1.00
20885;DHT22;10602;48.000;9.654;2023-07-13T14:31:44;24.60;1.00
20885;DHT22;10602;48.000;9.654;2023-07-13T14:34:12;24.50;1.00
20885;DHT22;10602;48.000;9.654;2023-07-13T14:36:43;24.40;1.00
20885;DHT22;10602;48.000;9.654;2023-07-13T14:39:14;23.90;1.00
20885;DHT22;10602;48.000;9.654;2023-07-13T14:41:43;23.90;1.00
20885;DHT22;10602;48.000;9.654;2023-07-13T14:44:13;23.70;1.00
20885;DHT22;10602;48.000;9.654;2023-07-13T14:46:42;23.50;1.00
20885;DHT22;10602;48.000;9.654;2023-07-13T14:49:33;23.40;1.00
20885;DHT22;10602;48.000;9.654;2023-07-13T14:52:16;23.40;1.00
20885;DHT22;10602;48.000;9.654;2023-07-13T14:54:41;23.20;1.00
20885;DHT22;10602;48.000;9.654;2023-07-13T14:57:13;23.20;1.00
20885;DHT22;10602;48.000;9.654;2023-07-13T14:59:41;23.10;99.90
20885;DHT22;10602;48.000;9.654;2023-07-13T15:02:18;23.20;99.90
20885;DHT22;10602;48.000;9.654;2023-07-13T15:04:45;23.40;28.00
20885;DHT22;10602;48.000;9.654;2023-07-13T15:07:13;23.50;71.50
20885;DHT22;10602;48.000;9.654;2023-07-13T15:09:42;23.60;99.90
20885;DHT22;10602;48.000;9.654;2023-07-13T15:12:10;23.80;1.00
20885;DHT22;10602;48.000;9.654;2023-07-13T15:14:37;23.80;1.00
20885;DHT22;10602;48.000;9.654;2023-07-13T15:17:05;23.80;1.00
20885;DHT22;10602;48.000;9.654;2023-07-13T15:19:33;23.80;1.00
20885;DHT22;10602;48.000;9.654;2023-07-13T15:22:01;23.80;1.00
20885;DHT22;10602;48.000;9.654;2023-07-13T15:24:29;23.80;1.00
20885;DHT22;10602;48.000;9.654;2023-07-13T15:26:57;23.70;1.00
20885;DHT22;10602;48.000;9.654;2023-07-13T15:29:24;23.80;1.00
20885;DHT22;10602;48.000;9.654;2023-07-13T15:31:52;23.80;1.00
20885;DHT22;10602;48.000;9.654;2023-07-13T15:34:24;23.60;72.20
20885;DHT22;10602;48.000;9.654;2023-07-13T15:36:51;23.60;96.30
20885;DHT22;10602;48.000;9.654;2023-07-13T15:39:18;23.70;1.00
20885;DHT22;10602;48.000;9.654;2023-07-13T15:41:47;23.70;1.00
20885;DHT22;10602;48.000;9.654;2023-07-13T15:44:29;23.80;1.00
20885;DHT22;10602;48.000;9.654;2023-07-13T15:46:57;23.90;1.00
20885;DHT22;10602;48.000;9.654;2023-07-13T15:49:26;24.00;1.00
20885;DHT22;10602;48.000;9.654;2023-07-13T15:51:54;24.00;1.00
20885;DHT22;10602;48.000;9.654;2023-07-13T15:54:22;24.00;1.00
20885;DHT22;10602;48.000;9.654;2023-07-13T15:56:55;24.10;1.00
20885;DHT22;10602;48.000;9.654;2023-07-13T15:59:22;24.20;1.00
20885;DHT22;10602;48.000;9.654;2023-07-13T16:01:50;24.00;1.00
20885;DHT22;10602;48.000;9.654;2023-07-13T16:04:18;24.00;1.00
20885;DHT22;10602;48.000;9.654;2023-07-13T16:06:46;23.90;1.00
20885;DHT22;10602;48.000;9.654;2023-07-13T16:09:22;23.80;1.00
20885;DHT22;10602;48.000;9.654;2023-07-13T16:11:50;23.50;1.00
20885;DHT22;10602;48.000;9.654;2023-07-13T16:14:18;23.30;1.00
20885;DHT22;10602;48.000;9.654;2023-07-13T16:16:47;23.20;1.00
20885;DHT22;10602;48.000;9.654;2023-07-13T16:19:16;23.20;77.60
20885;DHT22;10602;48.000;9.654;2023-07-13T16:21:46;23.30;99.90
20885;DHT22;10602;48.000;9.654;2023-07-13T16:24:19;23.10;1.00
20885;DHT22;10602;48.000;9.654;2023-07-13T16:26:48;22.80;1.00
20885;DHT22;10602;48.000;9.654;2023-07-13T16:29:19;22.50;99.90